SBMQ/MCP METAR and TAF weather

Enter ICAO airport designator
Station Type Date Time Source
SBMQ METAR 2020/05/29 19:00 UTC NOAA

SBMQ 291900Z 07010KT 9999 SCT025 FEW030TCU 33/26 Q1010


Station Type Date Time Source
SBMQ Decoded METAR 2020/05/29 19:00 UTC NOAA

Macapa, Brazil (SBMQ) 00-02N 050-03W
May 29, 2020 - 03:00 PM EDT / 2020.05.29 1900 UTC
Wind: from the ENE (070 degrees) at 12 MPH (10 KT):0
Visibility: greater than 7 mile(s):0
Sky conditions: partly cloudy
Weather: Towering cumulus clouds observed
Temperature: 91 F (33 C)
Heat index: 106.2 F (41.2 C):1
Dew Point: 78 F (26 C)
Relative Humidity: 66%
Pressure (altimeter): 29.83 in. Hg (1010 hPa)
ob: SBMQ 291900Z 07010KT 9999 SCT025 FEW030TCU 33/26 Q1010
cycle: 19

Station Type Date Time Source
SBMQ TAF 2020/05/29 18:35 UTC NOAA

TAF SBMQ 291500Z 2918/3018 07007KT 9999 SCT020 TX33/2918Z TN25/3009Z
BECMG 2919/2921 03005KT
BECMG 3003/3005 33005KT CAVOK
BECMG 3009/3011 9999 SCT020
BECMG 3013/3015 06007KT
RMK PDY

Example: see airport list